sensor_id;sensor_type;location;lat;lon;timestamp;temperature;humidity
68977;SHT31;56029;52.568;13.588;2023-05-07T00:00:18;8.16;99.40
68977;SHT31;56029;52.568;13.588;2023-05-07T00:03:06;8.25;99.21
68977;SHT31;56029;52.568;13.588;2023-05-07T00:05:32;8.16;99.26
68977;SHT31;56029;52.568;13.588;2023-05-07T00:07:57;8.25;99.12
68977;SHT31;56029;52.568;13.588;2023-05-07T00:10:23;8.16;99.28
68977;SHT31;56029;52.568;13.588;2023-05-07T00:12:49;8.15;99.33
68977;SHT31;56029;52.568;13.588;2023-05-07T00:15:14;8.16;99.43
68977;SHT31;56029;52.568;13.588;2023-05-07T00:17:41;8.13;99.22
68977;SHT31;56029;52.568;13.588;2023-05-07T00:20:07;8.21;99.11
68977;SHT31;56029;52.568;13.588;2023-05-07T00:22:32;8.09;99.61
68977;SHT31;56029;52.568;13.588;2023-05-07T00:24:58;8.06;99.32
68977;SHT31;56029;52.568;13.588;2023-05-07T00:27:24;8.09;99.35
68977;SHT31;56029;52.568;13.588;2023-05-07T00:29:50;8.01;99.54
68977;SHT31;56029;52.568;13.588;2023-05-07T00:32:16;8.02;99.47
68977;SHT31;56029;52.568;13.588;2023-05-07T00:34:42;8.08;99.15
68977;SHT31;56029;52.568;13.588;2023-05-07T00:37:07;8.08;99.34
68977;SHT31;56029;52.568;13.588;2023-05-07T00:39:34;8.03;99.30
68977;SHT31;56029;52.568;13.588;2023-05-07T00:42:00;7.94;99.88
68977;SHT31;56029;52.568;13.588;2023-05-07T00:44:26;7.90;99.88
68977;SHT31;56029;52.568;13.588;2023-05-07T00:46:53;7.85;99.99
68977;SHT31;56029;52.568;13.588;2023-05-07T00:49:19;7.92;99.78
68977;SHT31;56029;52.568;13.588;2023-05-07T00:51:45;7.90;99.86
68977;SHT31;56029;52.568;13.588;2023-05-07T00:54:12;7.91;99.92
68977;SHT31;56029;52.568;13.588;2023-05-07T00:56:39;7.88;99.99
68977;SHT31;56029;52.568;13.588;2023-05-07T00:59:05;7.88;99.99
68977;SHT31;56029;52.568;13.588;2023-05-07T01:01:31;7.95;99.89
68977;SHT31;56029;52.568;13.588;2023-05-07T01:03:57;7.91;99.99
68977;SHT31;56029;52.568;13.588;2023-05-07T01:06:24;8.01;99.97
68977;SHT31;56029;52.568;13.588;2023-05-07T01:08:51;8.01;99.44
68977;SHT31;56029;52.568;13.588;2023-05-07T01:11:18;8.06;99.43
68977;SHT31;56029;52.568;13.588;2023-05-07T01:13:46;8.02;99.28
68977;SHT31;56029;52.568;13.588;2023-05-07T01:16:12;8.08;99.25
68977;SHT31;56029;52.568;13.588;2023-05-07T01:18:38;8.12;99.13
68977;SHT31;56029;52.568;13.588;2023-05-07T01:21:04;8.13;99.05
68977;SHT31;56029;52.568;13.588;2023-05-07T01:23:30;8.08;98.95
68977;SHT31;56029;52.568;13.588;2023-05-07T01:25:56;8.16;98.69
68977;SHT31;56029;52.568;13.588;2023-05-07T01:28:22;8.16;98.71
68977;SHT31;56029;52.568;13.588;2023-05-07T01:30:52;8.15;98.73
68977;SHT31;56029;52.568;13.588;2023-05-07T01:33:20;8.15;98.68
68977;SHT31;56029;52.568;13.588;2023-05-07T01:35:51;8.18;98.76
68977;SHT31;56029;52.568;13.588;2023-05-07T01:38:18;8.19;98.47
68977;SHT31;56029;52.568;13.588;2023-05-07T01:40:45;8.11;98.90
68977;SHT31;56029;52.568;13.588;2023-05-07T01:43:10;8.08;98.95
68977;SHT31;56029;52.568;13.588;2023-05-07T01:45:44;8.03;98.97
68977;SHT31;56029;52.568;13.588;2023-05-07T01:48:11;8.13;98.83
68977;SHT31;56029;52.568;13.588;2023-05-07T01:50:37;8.06;99.18
68977;SHT31;56029;52.568;13.588;2023-05-07T01:53:02;8.08;99.02
68977;SHT31;56029;52.568;13.588;2023-05-07T01:55:28;8.11;98.80
68977;SHT31;56029;52.568;13.588;2023-05-07T01:57:54;8.16;98.50
68977;SHT31;56029;52.568;13.588;2023-05-07T02:00:20;8.11;98.56
68977;SHT31;56029;52.568;13.588;2023-05-07T02:02:45;8.11;98.16
68977;SHT31;56029;52.568;13.588;2023-05-07T02:05:11;8.11;98.46
68977;SHT31;56029;52.568;13.588;2023-05-07T02:07:36;8.15;98.23
68977;SHT31;56029;52.568;13.588;2023-05-07T02:10:02;8.16;98.00
68977;SHT31;56029;52.568;13.588;2023-05-07T02:12:28;8.13;98.24
68977;SHT31;56029;52.568;13.588;2023-05-07T02:14:54;8.21;98.05
68977;SHT31;56029;52.568;13.588;2023-05-07T02:17:19;8.16;98.32
68977;SHT31;56029;52.568;13.588;2023-05-07T02:19:45;8.09;98.48
68977;SHT31;56029;52.568;13.588;2023-05-07T02:22:10;8.12;98.29
68977;SHT31;56029;52.568;13.588;2023-05-07T02:24:36;8.13;98.17
68977;SHT31;56029;52.568;13.588;2023-05-07T02:27:02;8.03;98.49
68977;SHT31;56029;52.568;13.588;2023-05-07T02:29:29;8.08;98.15
68977;SHT31;56029;52.568;13.588;2023-05-07T02:31:54;8.13;98.19
68977;SHT31;56029;52.568;13.588;2023-05-07T02:34:21;8.06;98.14
68977;SHT31;56029;52.568;13.588;2023-05-07T02:36:46;8.06;98.19
68977;SHT31;56029;52.568;13.588;2023-05-07T02:39:13;8.02;98.19
68977;SHT31;56029;52.568;13.588;2023-05-07T02:41:39;8.12;97.56
68977;SHT31;56029;52.568;13.588;2023-05-07T02:44:04;8.15;97.38
68977;SHT31;56029;52.568;13.588;2023-05-07T02:46:30;8.06;97.99
68977;SHT31;56029;52.568;13.588;2023-05-07T02:48:56;8.12;97.62
68977;SHT31;56029;52.568;13.588;2023-05-07T02:51:22;8.06;97.79
68977;SHT31;56029;52.568;13.588;2023-05-07T02:53:48;8.06;97.57
68977;SHT31;56029;52.568;13.588;2023-05-07T02:56:13;8.01;98.04
68977;SHT31;56029;52.568;13.588;2023-05-07T02:58:39;7.94;98.01
68977;SHT31;56029;52.568;13.588;2023-05-07T03:01:05;7.90;98.24
68977;SHT31;56029;52.568;13.588;2023-05-07T03:03:31;7.98;98.24
68977;SHT31;56029;52.568;13.588;2023-05-07T03:05:57;7.98;98.06
68977;SHT31;56029;52.568;13.588;2023-05-07T03:08:23;7.97;98.00
68977;SHT31;56029;52.568;13.588;2023-05-07T03:10:49;7.99;98.01
68977;SHT31;56029;52.568;13.588;2023-05-07T03:13:14;7.94;97.87
68977;SHT31;56029;52.568;13.588;2023-05-07T03:15:40;8.02;97.98
68977;SHT31;56029;52.568;13.588;2023-05-07T03:18:06;7.98;97.86
68977;SHT31;56029;52.568;13.588;2023-05-07T03:20:31;8.02;97.89
68977;SHT31;56029;52.568;13.588;2023-05-07T03:22:57;8.03;97.69
68977;SHT31;56029;52.568;13.588;2023-05-07T03:25:23;8.01;97.39
68977;SHT31;56029;52.568;13.588;2023-05-07T03:27:48;7.95;97.48
68977;SHT31;56029;52.568;13.588;2023-05-07T03:30:14;7.97;97.49
68977;SHT31;56029;52.568;13.588;2023-05-07T03:32:39;7.87;97.42
68977;SHT31;56029;52.568;13.588;2023-05-07T03:35:05;7.90;97.31
68977;SHT31;56029;52.568;13.588;2023-05-07T03:37:31;7.95;97.12
68977;SHT31;56029;52.568;13.588;2023-05-07T03:39:56;7.95;97.32
68977;SHT31;56029;52.568;13.588;2023-05-07T03:42:22;7.87;97.57
68977;SHT31;56029;52.568;13.588;2023-05-07T03:44:48;7.87;97.25
68977;SHT31;56029;52.568;13.588;2023-05-07T03:47:13;7.91;97.42
68977;SHT31;56029;52.568;13.588;2023-05-07T03:49:39;7.92;97.30
68977;SHT31;56029;52.568;13.588;2023-05-07T03:52:05;7.94;97.14
68977;SHT31;56029;52.568;13.588;2023-05-07T03:54:31;7.92;97.06
68977;SHT31;56029;52.568;13.588;2023-05-07T03:56:57;7.94;97.31
68977;SHT31;56029;52.568;13.588;2023-05-07T03:59:22;7.95;97.06
68977;SHT31;56029;52.568;13.588;2023-05-07T04:01:48;7.99;96.82
68977;SHT31;56029;52.568;13.588;2023-05-07T04:04:16;7.98;96.99
68977;SHT31;56029;52.568;13.588;2023-05-07T04:06:42;7.95;97.07
68977;SHT31;56029;52.568;13.588;2023-05-07T04:09:08;8.01;96.94
68977;SHT31;56029;52.568;13.588;2023-05-07T04:11:35;8.06;96.77
68977;SHT31;56029;52.568;13.588;2023-05-07T04:14:00;8.11;96.14
68977;SHT31;56029;52.568;13.588;2023-05-07T04:16:26;8.11;96.25
68977;SHT31;56029;52.568;13.588;2023-05-07T04:18:51;8.05;96.12
68977;SHT31;56029;52.568;13.588;2023-05-07T04:21:18;8.02;95.39
68977;SHT31;56029;52.568;13.588;2023-05-07T04:23:46;8.15;95.20
68977;SHT31;56029;52.568;13.588;2023-05-07T04:26:12;8.12;95.60
68977;SHT31;56029;52.568;13.588;2023-05-07T04:28:38;8.02;95.56
68977;SHT31;56029;52.568;13.588;2023-05-07T04:31:04;8.09;95.31
68977;SHT31;56029;52.568;13.588;2023-05-07T04:33:30;8.12;95.06
68977;SHT31;56029;52.568;13.588;2023-05-07T04:35:56;8.15;95.10
68977;SHT31;56029;52.568;13.588;2023-05-07T04:38:21;8.19;95.00
68977;SHT31;56029;52.568;13.588;2023-05-07T04:40:49;8.18;94.69
68977;SHT31;56029;52.568;13.588;2023-05-07T04:43:14;8.21;94.74
68977;SHT31;56029;52.568;13.588;2023-05-07T04:45:41;8.22;94.56
68977;SHT31;56029;52.568;13.588;2023-05-07T04:48:08;8.30;94.41
68977;SHT31;56029;52.568;13.588;2023-05-07T04:50:34;8.35;94.01
68977;SHT31;56029;52.568;13.588;2023-05-07T04:52:59;8.28;94.05
68977;SHT31;56029;52.568;13.588;2023-05-07T04:55:25;8.35;93.70
68977;SHT31;56029;52.568;13.588;2023-05-07T04:57:51;8.32;94.20
68977;SHT31;56029;52.568;13.588;2023-05-07T05:00:17;8.38;94.04
68977;SHT31;56029;52.568;13.588;2023-05-07T05:02:45;8.28;93.95
68977;SHT31;56029;52.568;13.588;2023-05-07T05:05:11;8.39;93.91
68977;SHT31;56029;52.568;13.588;2023-05-07T05:07:36;8.36;93.86
68977;SHT31;56029;52.568;13.588;2023-05-07T05:10:03;8.42;93.21
68977;SHT31;56029;52.568;13.588;2023-05-07T05:12:29;8.26;93.48
68977;SHT31;56029;52.568;13.588;2023-05-07T05:14:55;8.28;92.97
68977;SHT31;56029;52.568;13.588;2023-05-07T05:17:21;8.09;93.31
68977;SHT31;56029;52.568;13.588;2023-05-07T05:19:46;8.16;94.02
68977;SHT31;56029;52.568;13.588;2023-05-07T05:22:12;8.33;93.32
68977;SHT31;56029;52.568;13.588;2023-05-07T05:24:37;8.52;92.90
68977;SHT31;56029;52.568;13.588;2023-05-07T05:27:03;8.69;92.11
68977;SHT31;56029;52.568;13.588;2023-05-07T05:29:29;8.84;91.31
68977;SHT31;56029;52.568;13.588;2023-05-07T05:31:56;8.97;91.11
68977;SHT31;56029;52.568;13.588;2023-05-07T05:34:22;8.77;91.72
68977;SHT31;56029;52.568;13.588;2023-05-07T05:36:47;8.87;91.27
68977;SHT31;56029;52.568;13.588;2023-05-07T05:39:13;8.90;91.63
68977;SHT31;56029;52.568;13.588;2023-05-07T05:41:39;9.05;91.29
68977;SHT31;56029;52.568;13.588;2023-05-07T05:44:06;9.15;90.94
68977;SHT31;56029;52.568;13.588;2023-05-07T05:46:31;9.05;91.03
68977;SHT31;56029;52.568;13.588;2023-05-07T05:48:57;9.28;90.83
68977;SHT31;56029;52.568;13.588;2023-05-07T05:51:22;9.34;90.55
68977;SHT31;56029;52.568;13.588;2023-05-07T05:53:48;9.25;91.00
68977;SHT31;56029;52.568;13.588;2023-05-07T05:56:15;9.39;90.16
68977;SHT31;56029;52.568;13.588;2023-05-07T05:58:41;9.56;90.49
68977;SHT31;56029;52.568;13.588;2023-05-07T06:01:07;9.63;89.50
68977;SHT31;56029;52.568;13.588;2023-05-07T06:03:32;9.70;88.92
68977;SHT31;56029;52.568;13.588;2023-05-07T06:05:58;9.76;89.45
68977;SHT31;56029;52.568;13.588;2023-05-07T06:08:25;9.70;88.79
68977;SHT31;56029;52.568;13.588;2023-05-07T06:10:51;9.82;88.54
68977;SHT31;56029;52.568;13.588;2023-05-07T06:13:17;9.83;88.51
68977;SHT31;56029;52.568;13.588;2023-05-07T06:15:42;9.75;88.49
68977;SHT31;56029;52.568;13.588;2023-05-07T06:18:08;9.75;88.59
68977;SHT31;56029;52.568;13.588;2023-05-07T06:20:33;9.83;88.47
68977;SHT31;56029;52.568;13.588;2023-05-07T06:22:59;9.83;88.84
68977;SHT31;56029;52.568;13.588;2023-05-07T06:25:24;9.59;88.65
68977;SHT31;56029;52.568;13.588;2023-05-07T06:27:50;9.58;88.25
68977;SHT31;56029;52.568;13.588;2023-05-07T06:30:15;9.79;88.59
68977;SHT31;56029;52.568;13.588;2023-05-07T06:32:41;9.82;87.92
68977;SHT31;56029;52.568;13.588;2023-05-07T06:35:07;9.87;88.31
68977;SHT31;56029;52.568;13.588;2023-05-07T06:37:32;10.00;86.94
68977;SHT31;56029;52.568;13.588;2023-05-07T06:39:58;10.10;86.99
68977;SHT31;56029;52.568;13.588;2023-05-07T06:42:23;10.10;87.11
68977;SHT31;56029;52.568;13.588;2023-05-07T06:44:49;10.24;87.00
68977;SHT31;56029;52.568;13.588;2023-05-07T06:47:15;10.04;87.36
68977;SHT31;56029;52.568;13.588;2023-05-07T06:49:40;10.08;87.14
68977;SHT31;56029;52.568;13.588;2023-05-07T06:52:06;9.96;87.83
68977;SHT31;56029;52.568;13.588;2023-05-07T06:54:31;9.96;87.72
68977;SHT31;56029;52.568;13.588;2023-05-07T06:56:57;9.75;88.09
68977;SHT31;56029;52.568;13.588;2023-05-07T06:59:23;9.73;88.24
68977;SHT31;56029;52.568;13.588;2023-05-07T07:01:49;9.65;88.45
68977;SHT31;56029;52.568;13.588;2023-05-07T07:04:14;9.72;88.47
68977;SHT31;56029;52.568;13.588;2023-05-07T07:06:40;10.04;87.73
68977;SHT31;56029;52.568;13.588;2023-05-07T07:09:05;10.20;87.98
68977;SHT31;56029;52.568;13.588;2023-05-07T07:11:31;10.24;87.14
68977;SHT31;56029;52.568;13.588;2023-05-07T07:13:56;10.31;87.36
68977;SHT31;56029;52.568;13.588;2023-05-07T07:16:22;10.33;86.77
68977;SHT31;56029;52.568;13.588;2023-05-07T07:18:48;10.03;86.57
68977;SHT31;56029;52.568;13.588;2023-05-07T07:21:13;10.13;87.66
68977;SHT31;56029;52.568;13.588;2023-05-07T07:23:39;10.21;86.89
68977;SHT31;56029;52.568;13.588;2023-05-07T07:26:05;10.46;85.94
68977;SHT31;56029;52.568;13.588;2023-05-07T07:28:31;10.64;86.26
68977;SHT31;56029;52.568;13.588;2023-05-07T07:30:57;10.72;84.75
68977;SHT31;56029;52.568;13.588;2023-05-07T07:33:22;10.77;83.69
68977;SHT31;56029;52.568;13.588;2023-05-07T07:35:48;10.96;85.46
68977;SHT31;56029;52.568;13.588;2023-05-07T07:38:13;11.12;83.84
68977;SHT31;56029;52.568;13.588;2023-05-07T07:40:39;11.10;83.36
68977;SHT31;56029;52.568;13.588;2023-05-07T07:43:04;11.04;82.40
68977;SHT31;56029;52.568;13.588;2023-05-07T07:45:31;11.22;81.70
68977;SHT31;56029;52.568;13.588;2023-05-07T07:47:56;11.31;82.56
68977;SHT31;56029;52.568;13.588;2023-05-07T07:50:22;11.41;81.59
68977;SHT31;56029;52.568;13.588;2023-05-07T07:52:48;11.47;80.94
68977;SHT31;56029;52.568;13.588;2023-05-07T07:55:14;11.51;80.99
68977;SHT31;56029;52.568;13.588;2023-05-07T07:57:43;11.58;80.40
68977;SHT31;56029;52.568;13.588;2023-05-07T08:00:09;11.67;80.37
68977;SHT31;56029;52.568;13.588;2023-05-07T08:02:34;11.78;80.44
68977;SHT31;56029;52.568;13.588;2023-05-07T08:05:00;11.92;80.49
68977;SHT31;56029;52.568;13.588;2023-05-07T08:07:26;11.86;77.95
68977;SHT31;56029;52.568;13.588;2023-05-07T08:09:51;11.72;79.54
68977;SHT31;56029;52.568;13.588;2023-05-07T08:12:17;11.79;78.90
68977;SHT31;56029;52.568;13.588;2023-05-07T08:14:42;11.92;78.85
68977;SHT31;56029;52.568;13.588;2023-05-07T08:17:08;11.95;78.30
68977;SHT31;56029;52.568;13.588;2023-05-07T08:19:35;12.05;78.71
68977;SHT31;56029;52.568;13.588;2023-05-07T08:22:02;12.06;79.49
68977;SHT31;56029;52.568;13.588;2023-05-07T08:24:28;12.13;78.24
68977;SHT31;56029;52.568;13.588;2023-05-07T08:26:53;12.28;78.15
68977;SHT31;56029;52.568;13.588;2023-05-07T08:29:19;12.36;78.15
68977;SHT31;56029;52.568;13.588;2023-05-07T08:31:45;12.61;77.17
68977;SHT31;56029;52.568;13.588;2023-05-07T08:34:10;12.67;76.84
68977;SHT31;56029;52.568;13.588;2023-05-07T08:36:36;12.90;77.60
68977;SHT31;56029;52.568;13.588;2023-05-07T08:39:01;13.09;75.20
68977;SHT31;56029;52.568;13.588;2023-05-07T08:41:27;13.28;75.37
68977;SHT31;56029;52.568;13.588;2023-05-07T08:43:58;13.32;74.89
68977;SHT31;56029;52.568;13.588;2023-05-07T08:46:25;13.16;75.13
68977;SHT31;56029;52.568;13.588;2023-05-07T08:48:51;13.02;74.47
68977;SHT31;56029;52.568;13.588;2023-05-07T08:51:27;13.02;75.40
68977;SHT31;56029;52.568;13.588;2023-05-07T08:53:55;12.76;75.87
68977;SHT31;56029;52.568;13.588;2023-05-07T08:56:20;12.44;76.50
68977;SHT31;56029;52.568;13.588;2023-05-07T08:58:46;12.59;76.67
68977;SHT31;56029;52.568;13.588;2023-05-07T09:01:16;12.51;76.05
68977;SHT31;56029;52.568;13.588;2023-05-07T09:03:44;12.70;76.45
68977;SHT31;56029;52.568;13.588;2023-05-07T09:06:10;13.19;76.56
68977;SHT31;56029;52.568;13.588;2023-05-07T09:08:35;13.25;73.84
68977;SHT31;56029;52.568;13.588;2023-05-07T09:11:02;13.36;74.96
68977;SHT31;56029;52.568;13.588;2023-05-07T09:13:27;13.30;74.42
68977;SHT31;56029;52.568;13.588;2023-05-07T09:15:53;13.11;74.15
68977;SHT31;56029;52.568;13.588;2023-05-07T09:18:19;13.07;74.30
68977;SHT31;56029;52.568;13.588;2023-05-07T09:20:44;13.15;75.06
68977;SHT31;56029;52.568;13.588;2023-05-07T09:23:10;13.55;74.34
68977;SHT31;56029;52.568;13.588;2023-05-07T09:25:36;13.84;72.73
68977;SHT31;56029;52.568;13.588;2023-05-07T09:28:03;13.77;71.67
68977;SHT31;56029;52.568;13.588;2023-05-07T09:30:33;13.49;72.62
68977;SHT31;56029;52.568;13.588;2023-05-07T09:33:00;13.26;73.60
68977;SHT31;56029;52.568;13.588;2023-05-07T09:35:27;13.42;74.07
68977;SHT31;56029;52.568;13.588;2023-05-07T09:37:58;13.77;72.83
68977;SHT31;56029;52.568;13.588;2023-05-07T09:40:25;14.03;72.17
68977;SHT31;56029;52.568;13.588;2023-05-07T09:42:51;13.90;71.77
68977;SHT31;56029;52.568;13.588;2023-05-07T09:45:27;13.73;72.47
68977;SHT31;56029;52.568;13.588;2023-05-07T09:47:57;13.69;73.90
68977;SHT31;56029;52.568;13.588;2023-05-07T09:50:28;13.43;72.78
68977;SHT31;56029;52.568;13.588;2023-05-07T09:52:55;13.30;73.74
68977;SHT31;56029;52.568;13.588;2023-05-07T09:55:22;13.48;71.79
68977;SHT31;56029;52.568;13.588;2023-05-07T09:57:50;13.77;72.78
68977;SHT31;56029;52.568;13.588;2023-05-07T10:00:17;14.14;73.56
68977;SHT31;56029;52.568;13.588;2023-05-07T10:02:45;14.39;70.00
68977;SHT31;56029;52.568;13.588;2023-05-07T10:05:14;14.32;70.29
68977;SHT31;56029;52.568;13.588;2023-05-07T10:07:40;14.24;70.07
68977;SHT31;56029;52.568;13.588;2023-05-07T10:10:06;14.18;70.67
68977;SHT31;56029;52.568;13.588;2023-05-07T10:12:32;14.29;70.94
68977;SHT31;56029;52.568;13.588;2023-05-07T10:15:08;14.31;70.90
68977;SHT31;56029;52.568;13.588;2023-05-07T10:17:36;14.69;72.18
68977;SHT31;56029;52.568;13.588;2023-05-07T10:20:02;15.00;67.42
68977;SHT31;56029;52.568;13.588;2023-05-07T10:22:34;15.23;68.05
68977;SHT31;56029;52.568;13.588;2023-05-07T10:25:03;15.19;68.03
68977;SHT31;56029;52.568;13.588;2023-05-07T10:27:31;14.76;67.44
68977;SHT31;56029;52.568;13.588;2023-05-07T10:32:45;14.35;67.78
68977;SHT31;56029;52.568;13.588;2023-05-07T10:35:19;14.13;68.46
68977;SHT31;56029;52.568;13.588;2023-05-07T10:37:45;14.03;69.03
68977;SHT31;56029;52.568;13.588;2023-05-07T10:40:12;14.00;69.24
68977;SHT31;56029;52.568;13.588;2023-05-07T10:42:38;13.98;69.16
68977;SHT31;56029;52.568;13.588;2023-05-07T10:45:13;14.20;68.89
68977;SHT31;56029;52.568;13.588;2023-05-07T10:48:18;14.41;68.20
68977;SHT31;56029;52.568;13.588;2023-05-07T10:50:44;14.65;67.30
68977;SHT31;56029;52.568;13.588;2023-05-07T10:58:46;15.23;64.78
68977;SHT31;56029;52.568;13.588;2023-05-07T11:01:12;15.41;65.43
68977;SHT31;56029;52.568;13.588;2023-05-07T11:04:12;15.71;67.30
68977;SHT31;56029;52.568;13.588;2023-05-07T11:06:38;15.92;64.56
68977;SHT31;56029;52.568;13.588;2023-05-07T11:09:03;15.91;65.81
68977;SHT31;56029;52.568;13.588;2023-05-07T11:14:11;16.02;67.07
68977;SHT31;56029;52.568;13.588;2023-05-07T11:16:37;15.77;63.18
68977;SHT31;56029;52.568;13.588;2023-05-07T11:19:03;15.54;64.32
68977;SHT31;56029;52.568;13.588;2023-05-07T11:21:39;15.38;65.44
68977;SHT31;56029;52.568;13.588;2023-05-07T11:24:06;15.33;65.63
68977;SHT31;56029;52.568;13.588;2023-05-07T11:26:49;14.93;65.31
68977;SHT31;56029;52.568;13.588;2023-05-07T11:29:20;14.76;65.19
68977;SHT31;56029;52.568;13.588;2023-05-07T11:31:55;14.96;64.83
68977;SHT31;56029;52.568;13.588;2023-05-07T11:34:22;15.19;66.31
68977;SHT31;56029;52.568;13.588;2023-05-07T11:36:48;15.31;65.07
68977;SHT31;56029;52.568;13.588;2023-05-07T11:39:27;15.24;64.33
68977;SHT31;56029;52.568;13.588;2023-05-07T11:41:53;14.99;65.13
68977;SHT31;56029;52.568;13.588;2023-05-07T11:44:18;15.08;66.44
68977;SHT31;56029;52.568;13.588;2023-05-07T11:46:44;15.17;63.83
68977;SHT31;56029;52.568;13.588;2023-05-07T11:49:10;15.28;63.33
68977;SHT31;56029;52.568;13.588;2023-05-07T11:51:36;15.33;63.84
68977;SHT31;56029;52.568;13.588;2023-05-07T11:54:03;15.42;63.98
68977;SHT31;56029;52.568;13.588;2023-05-07T11:56:34;15.61;63.66
68977;SHT31;56029;52.568;13.588;2023-05-07T11:58:59;15.77;64.65
68977;SHT31;56029;52.568;13.588;2023-05-07T12:01:25;15.88;63.81
68977;SHT31;56029;52.568;13.588;2023-05-07T12:03:50;16.05;62.79
68977;SHT31;56029;52.568;13.588;2023-05-07T12:06:16;15.93;62.46
68977;SHT31;56029;52.568;13.588;2023-05-07T12:08:43;15.95;63.21
68977;SHT31;56029;52.568;13.588;2023-05-07T12:11:18;16.02;64.61
68977;SHT31;56029;52.568;13.588;2023-05-07T12:13:46;15.68;62.97
68977;SHT31;56029;52.568;13.588;2023-05-07T12:16:12;15.57;64.15
68977;SHT31;56029;52.568;13.588;2023-05-07T12:18:38;15.71;63.46
68977;SHT31;56029;52.568;13.588;2023-05-07T12:21:05;15.66;62.73
68977;SHT31;56029;52.568;13.588;2023-05-07T12:23:31;15.58;62.63
68977;SHT31;56029;52.568;13.588;2023-05-07T12:25:57;15.58;63.85
68977;SHT31;56029;52.568;13.588;2023-05-07T12:28:22;15.44;63.50
68977;SHT31;56029;52.568;13.588;2023-05-07T12:30:50;15.63;63.19
68977;SHT31;56029;52.568;13.588;2023-05-07T12:33:22;15.69;63.51
68977;SHT31;56029;52.568;13.588;2023-05-07T12:35:48;15.71;63.85
68977;SHT31;56029;52.568;13.588;2023-05-07T12:38:16;15.66;62.74
68977;SHT31;56029;52.568;13.588;2023-05-07T12:40:47;15.78;62.98
68977;SHT31;56029;52.568;13.588;2023-05-07T12:43:20;15.66;62.22
68977;SHT31;56029;52.568;13.588;2023-05-07T12:45:50;15.75;62.38
68977;SHT31;56029;52.568;13.588;2023-05-07T12:48:16;15.73;62.66
68977;SHT31;56029;52.568;13.588;2023-05-07T12:50:42;15.71;62.87
68977;SHT31;56029;52.568;13.588;2023-05-07T12:53:11;15.73;61.94
68977;SHT31;56029;52.568;13.588;2023-05-07T12:58:07;15.81;61.79
68977;SHT31;56029;52.568;13.588;2023-05-07T13:00:37;15.98;63.09
68977;SHT31;56029;52.568;13.588;2023-05-07T13:03:02;16.20;62.13
68977;SHT31;56029;52.568;13.588;2023-05-07T13:05:28;15.85;61.68
68977;SHT31;56029;52.568;13.588;2023-05-07T13:07:54;15.83;61.22
68977;SHT31;56029;52.568;13.588;2023-05-07T13:10:22;15.59;62.54
68977;SHT31;56029;52.568;13.588;2023-05-07T13:12:48;15.55;62.65
68977;SHT31;56029;52.568;13.588;2023-05-07T13:15:14;15.52;63.82
68977;SHT31;56029;52.568;13.588;2023-05-07T13:17:39;15.40;63.02
68977;SHT31;56029;52.568;13.588;2023-05-07T13:20:06;15.61;64.44
68977;SHT31;56029;52.568;13.588;2023-05-07T13:22:33;15.69;61.13
68977;SHT31;56029;52.568;13.588;2023-05-07T13:24:58;15.73;61.05
68977;SHT31;56029;52.568;13.588;2023-05-07T13:27:24;15.95;59.97
68977;SHT31;56029;52.568;13.588;2023-05-07T13:29:49;16.00;59.89
68977;SHT31;56029;52.568;13.588;2023-05-07T13:32:15;16.24;60.38
68977;SHT31;56029;52.568;13.588;2023-05-07T13:34:41;16.54;59.29
68977;SHT31;56029;52.568;13.588;2023-05-07T13:37:06;16.91;61.55
68977;SHT31;56029;52.568;13.588;2023-05-07T13:39:33;17.25;60.58
68977;SHT31;56029;52.568;13.588;2023-05-07T13:41:58;17.43;58.66
68977;SHT31;56029;52.568;13.588;2023-05-07T13:44:24;17.35;56.72
68977;SHT31;56029;52.568;13.588;2023-05-07T13:46:49;17.50;56.65
68977;SHT31;56029;52.568;13.588;2023-05-07T13:49:15;17.59;57.30
68977;SHT31;56029;52.568;13.588;2023-05-07T13:51:41;17.60;56.25
68977;SHT31;56029;52.568;13.588;2023-05-07T13:54:06;17.33;57.08
68977;SHT31;56029;52.568;13.588;2023-05-07T13:56:32;17.15;57.49
68977;SHT31;56029;52.568;13.588;2023-05-07T13:58:58;16.87;58.98
68977;SHT31;56029;52.568;13.588;2023-05-07T14:01:23;16.82;58.25
68977;SHT31;56029;52.568;13.588;2023-05-07T14:03:49;16.96;57.44
68977;SHT31;56029;52.568;13.588;2023-05-07T14:06:14;17.11;58.12
68977;SHT31;56029;52.568;13.588;2023-05-07T14:08:40;17.33;59.47
68977;SHT31;56029;52.568;13.588;2023-05-07T14:11:06;17.53;55.15
68977;SHT31;56029;52.568;13.588;2023-05-07T14:13:31;17.88;57.43
68977;SHT31;56029;52.568;13.588;2023-05-07T14:15:58;17.53;58.32
68977;SHT31;56029;52.568;13.588;2023-05-07T14:18:24;17.37;55.68
68977;SHT31;56029;52.568;13.588;2023-05-07T14:20:49;17.28;58.88
68977;SHT31;56029;52.568;13.588;2023-05-07T14:23:15;17.30;58.19
68977;SHT31;56029;52.568;13.588;2023-05-07T14:25:42;17.19;58.04
68977;SHT31;56029;52.568;13.588;2023-05-07T14:28:09;17.08;57.84
68977;SHT31;56029;52.568;13.588;2023-05-07T14:30:34;17.15;58.15
68977;SHT31;56029;52.568;13.588;2023-05-07T14:33:00;17.22;57.87
68977;SHT31;56029;52.568;13.588;2023-05-07T14:35:25;17.25;57.85
68977;SHT31;56029;52.568;13.588;2023-05-07T14:37:51;17.09;57.49
68977;SHT31;56029;52.568;13.588;2023-05-07T14:40:16;17.15;57.78
68977;SHT31;56029;52.568;13.588;2023-05-07T14:42:42;17.30;57.82
68977;SHT31;56029;52.568;13.588;2023-05-07T14:45:08;17.57;57.06
68977;SHT31;56029;52.568;13.588;2023-05-07T14:47:34;17.33;56.24
68977;SHT31;56029;52.568;13.588;2023-05-07T14:49:59;17.33;57.85
68977;SHT31;56029;52.568;13.588;2023-05-07T14:52:26;17.11;56.98
68977;SHT31;56029;52.568;13.588;2023-05-07T14:54:52;17.11;57.51
68977;SHT31;56029;52.568;13.588;2023-05-07T14:57:18;16.84;57.33
68977;SHT31;56029;52.568;13.588;2023-05-07T14:59:44;16.88;58.64
68977;SHT31;56029;52.568;13.588;2023-05-07T15:02:11;16.98;58.96
68977;SHT31;56029;52.568;13.588;2023-05-07T15:04:37;16.89;59.03
68977;SHT31;56029;52.568;13.588;2023-05-07T15:07:04;16.63;58.67
68977;SHT31;56029;52.568;13.588;2023-05-07T15:09:29;16.39;59.90
68977;SHT31;56029;52.568;13.588;2023-05-07T15:11:55;16.12;60.31
68977;SHT31;56029;52.568;13.588;2023-05-07T15:14:21;15.82;60.94
68977;SHT31;56029;52.568;13.588;2023-05-07T15:16:48;15.89;60.73
68977;SHT31;56029;52.568;13.588;2023-05-07T15:19:13;16.08;60.17
68977;SHT31;56029;52.568;13.588;2023-05-07T15:21:41;16.14;60.83
68977;SHT31;56029;52.568;13.588;2023-05-07T15:24:06;16.14;58.69
68977;SHT31;56029;52.568;13.588;2023-05-07T15:26:32;16.19;59.00
68977;SHT31;56029;52.568;13.588;2023-05-07T15:28:58;16.27;60.07
68977;SHT31;56029;52.568;13.588;2023-05-07T15:31:24;16.40;59.60